Time;durP1;ratioP1;P1;durP2;ratioP2;P2;SDS_P1;SDS_P2;PMS_P1;PMS_P2;Temp;Humidity;BMP_temperature;BMP_pressure;BME280_temperature;BME280_humidity;BME280_pressure;Samples;Min_cycle;Max_cycle;Signal;HPM_P1;HPM_P2
2023/10/07 00:03:43;;;;;;;9.25;4.15;;;;;;;;;;10492636;22;20459;-92
2023/10/07 00:07:45;;;;;;;8.95;3.88;;;;;;;;;;10492135;22;20042;-92
2023/10/07 00:11:50;;;;;;;9.70;4.28;;;;;;;;;;10492448;22;20045;-91
2023/10/07 00:15:55;;;;;;;8.00;3.50;;;;;;;;;;10492524;22;20030;-92
2023/10/07 00:24:25;;;;;;;8.63;3.40;;;;;;;;;;10495911;22;20098;-92
2023/10/07 00:28:32;;;;;;;8.13;3.65;;;;;;;;;;10492920;22;20023;-92
2023/10/07 00:32:34;;;;;;;7.15;4.03;;;;;;;;;;10509958;22;20499;-92
2023/10/07 00:36:47;;;;;;;10.40;3.55;;;;;;;;;;10492554;22;20458;-92
2023/10/07 00:40:53;;;;;;;6.72;3.53;;;;;;;;;;10492391;22;20094;-91
2023/10/07 00:44:58;;;;;;;9.23;3.60;;;;;;;;;;10492261;22;20011;-92
2023/10/07 00:49:09;;;;;;;8.75;3.50;;;;;;;;;;10493163;22;20087;-92
2023/10/07 00:53:12;;;;;;;9.43;3.73;;;;;;;;;;10492693;22;20068;-93
2023/10/07 00:57:24;;;;;;;6.53;3.20;;;;;;;;;;10492370;22;20033;-92
2023/10/07 01:01:28;;;;;;;9.20;3.70;;;;;;;;;;10511509;22;20015;-93
2023/10/07 01:05:33;;;;;;;6.53;3.47;;;;;;;;;;10513757;22;20025;-93
2023/10/07 01:09:36;;;;;;;9.55;3.78;;;;;;;;;;10495777;22;20026;-93
2023/10/07 01:13:45;;;;;;;9.15;3.70;;;;;;;;;;10496171;22;20042;-93
2023/10/07 01:17:53;;;;;;;8.85;2.97;;;;;;;;;;10495682;22;20029;-93
2023/10/07 01:22:09;;;;;;;6.65;3.35;;;;;;;;;;10512852;22;20019;-93
2023/10/07 01:26:23;;;;;;;6.65;2.97;;;;;;;;;;10511295;22;20316;-93
2023/10/07 01:30:29;;;;;;;10.15;3.17;;;;;;;;;;10495845;22;20092;-93
2023/10/07 01:34:35;;;;;;;7.28;3.40;;;;;;;;;;10513114;22;20022;-93
2023/10/07 01:38:43;;;;;;;8.07;3.20;;;;;;;;;;10512466;22;20550;-93
2023/10/07 01:42:48;;;;;;;6.82;2.83;;;;;;;;;;10495138;22;20094;-92
2023/10/07 01:46:56;;;;;;;7.35;3.17;;;;;;;;;;10495597;22;20019;-95
2023/10/07 01:51:01;;;;;;;6.38;3.17;;;;;;;;;;10496263;22;20316;-94
2023/10/07 01:55:10;;;;;;;8.80;3.83;;;;;;;;;;10512796;22;20389;-92
2023/10/07 01:59:19;;;;;;;10.23;3.15;;;;;;;;;;10495451;22;20015;-93
2023/10/07 02:03:24;;;;;;;5.78;3.08;;;;;;;;;;10512776;22;20084;-93
2023/10/07 02:07:27;;;;;;;8.10;3.40;;;;;;;;;;10494458;22;20519;-92
2023/10/07 02:11:31;;;;;;;13.38;3.20;;;;;;;;;;10494360;22;20042;-92
2023/10/07 02:15:37;;;;;;;6.95;3.20;;;;;;;;;;10494724;22;20038;-92
2023/10/07 02:19:41;;;;;;;6.68;3.08;;;;;;;;;;10494407;22;20025;-92
2023/10/07 02:23:44;;;;;;;4.43;2.58;;;;;;;;;;10494805;22;20025;-92
2023/10/07 02:27:49;;;;;;;6.22;3.35;;;;;;;;;;10466477;22;20455;-92
2023/10/07 02:32:05;;;;;;;5.07;2.75;;;;;;;;;;10493981;22;20015;-93
2023/10/07 02:36:10;;;;;;;7.13;3.15;;;;;;;;;;10494157;22;20102;-92
2023/10/07 02:40:21;;;;;;;7.72;3.10;;;;;;;;;;10493972;22;20049;-93
2023/10/07 02:44:27;;;;;;;7.18;3.10;;;;;;;;;;10511388;22;20346;-92
2023/10/07 02:48:35;;;;;;;6.63;2.95;;;;;;;;;;10494316;22;20382;-93
2023/10/07 02:52:39;;;;;;;5.95;3.00;;;;;;;;;;10466461;22;20015;-93
2023/10/07 02:56:54;;;;;;;8.23;3.10;;;;;;;;;;10494414;22;20019;-93
2023/10/07 03:01:10;;;;;;;6.07;2.60;;;;;;;;;;10493520;22;20018;-92
2023/10/07 03:05:24;;;;;;;7.55;3.25;;;;;;;;;;10493281;22;20010;-92
2023/10/07 03:09:33;;;;;;;6.80;2.75;;;;;;;;;;10511668;22;20101;-94
2023/10/07 03:13:38;;;;;;;4.78;2.63;;;;;;;;;;10467127;22;20098;-94
2023/10/07 03:17:59;;;;;;;6.55;2.78;;;;;;;;;;10495178;22;20339;-96
2023/10/07 03:22:18;;;;;;;6.28;2.50;;;;;;;;;;10496355;22;20343;-96
2023/10/07 03:26:22;;;;;;;6.10;2.85;;;;;;;;;;10492734;22;20102;-93
2023/10/07 03:30:28;;;;;;;6.82;2.38;;;;;;;;;;10494978;22;20270;-93
2023/10/07 03:34:32;;;;;;;6.80;3.22;;;;;;;;;;10511408;22;20089;-93
2023/10/07 03:38:41;;;;;;;8.10;3.17;;;;;;;;;;10493795;22;20019;-95
2023/10/07 03:42:46;;;;;;;6.57;3.35;;;;;;;;;;10511450;22;20015;-94
2023/10/07 03:46:54;;;;;;;8.15;3.30;;;;;;;;;;10494519;22;20034;-93
2023/10/07 03:51:05;;;;;;;8.40;3.60;;;;;;;;;;10493592;22;20031;-94
2023/10/07 03:55:14;;;;;;;7.78;3.13;;;;;;;;;;10494269;22;20383;-94
2023/10/07 03:59:17;;;;;;;8.05;3.40;;;;;;;;;;10511982;22;20350;-94
2023/10/07 04:03:23;;;;;;;7.10;3.10;;;;;;;;;;10494397;22;20042;-94
2023/10/07 04:07:29;;;;;;;6.95;3.25;;;;;;;;;;10465450;22;20417;-93
2023/10/07 04:11:36;;;;;;;6.57;3.05;;;;;;;;;;10510180;22;20084;-93
2023/10/07 04:15:51;;;;;;;7.57;2.95;;;;;;;;;;10509680;22;20026;-93
2023/10/07 04:19:54;;;;;;;8.82;3.08;;;;;;;;;;10510983;22;20041;-92
2023/10/07 04:23:57;;;;;;;8.80;2.92;;;;;;;;;;10492704;22;20026;-93
2023/10/07 04:28:06;;;;;;;6.00;2.78;;;;;;;;;;10492137;22;20022;-91
2023/10/07 04:32:19;;;;;;;6.22;2.60;;;;;;;;;;10493168;22;20050;-93
2023/10/07 04:36:33;;;;;;;6.43;2.83;;;;;;;;;;10512319;22;20018;-94
2023/10/07 04:49:38;;;;;;;6.72;2.95;;;;;;;;;;8519863;27;1608116;-95
2023/10/07 04:53:43;;;;;;;7.85;2.85;;;;;;;;;;8561365;27;20039;-93
2023/10/07 04:57:56;;;;;;;6.07;2.90;;;;;;;;;;8543881;27;20107;-93
2023/10/07 05:02:10;;;;;;;6.72;3.00;;;;;;;;;;8544279;27;20039;-94
2023/10/07 05:06:14;;;;;;;7.75;3.95;;;;;;;;;;8557086;27;20038;-93
2023/10/07 05:10:20;;;;;;;8.63;3.42;;;;;;;;;;8557373;27;20057;-94
2023/10/07 05:14:25;;;;;;;9.82;4.15;;;;;;;;;;8557273;27;20038;-94
2023/10/07 05:18:28;;;;;;;8.25;3.67;;;;;;;;;;8545494;27;20050;-94
2023/10/07 05:22:35;;;;;;;8.05;3.40;;;;;;;;;;8562085;27;20043;-92
2023/10/07 05:26:40;;;;;;;12.10;3.40;;;;;;;;;;8562933;27;20039;-92
2023/10/07 05:30:51;;;;;;;7.13;3.38;;;;;;;;;;8555031;27;20054;-92
2023/10/07 05:34:57;;;;;;;11.87;2.87;;;;;;;;;;8541119;27;20062;-91
2023/10/07 05:39:03;;;;;;;6.30;3.60;;;;;;;;;;8552000;27;20039;-93
2023/10/07 05:43:08;;;;;;;7.43;3.20;;;;;;;;;;8540488;27;20046;-93
2023/10/07 05:47:12;;;;;;;8.45;3.33;;;;;;;;;;8540210;27;20054;-94
2023/10/07 05:51:16;;;;;;;6.68;2.90;;;;;;;;;;8550532;27;20115;-93
2023/10/07 05:55:22;;;;;;;6.35;2.72;;;;;;;;;;8524206;27;20057;-92
2023/10/07 05:59:25;;;;;;;6.30;2.92;;;;;;;;;;8542325;27;20142;-93
2023/10/07 06:03:29;;;;;;;8.32;2.88;;;;;;;;;;8522387;27;20031;-90
2023/10/07 06:07:32;;;;;;;7.97;3.00;;;;;;;;;;8538152;27;20046;-92
2023/10/07 06:11:37;;;;;;;6.65;3.45;;;;;;;;;;8536503;27;20535;-93
2023/10/07 06:15:40;;;;;;;8.85;3.50;;;;;;;;;;8523766;27;20114;-92
2023/10/07 06:19:45;;;;;;;5.53;3.25;;;;;;;;;;8535582;27;20064;-91
2023/10/07 06:23:49;;;;;;;7.55;3.60;;;;;;;;;;8533079;27;20050;-92
2023/10/07 06:27:54;;;;;;;9.13;2.88;;;;;;;;;;8532295;27;20035;-93
2023/10/07 06:32:12;;;;;;;7.10;3.15;;;;;;;;;;8509533;27;20054;-95
2023/10/07 06:36:18;;;;;;;7.25;2.70;;;;;;;;;;8539760;27;20046;-95
2023/10/07 06:40:28;;;;;;;8.40;3.08;;;;;;;;;;8507680;27;20406;-92
2023/10/07 06:44:35;;;;;;;6.85;2.80;;;;;;;;;;8506404;27;20379;-91
2023/10/07 06:48:39;;;;;;;6.80;3.00;;;;;;;;;;8520308;27;20103;-92
2023/10/07 06:52:46;;;;;;;7.15;3.00;;;;;;;;;;8532904;27;20051;-94
2023/10/07 06:57:10;;;;;;;7.38;2.80;;;;;;;;;;8529978;27;20463;-96
2023/10/07 07:01:22;;;;;;;6.82;3.08;;;;;;;;;;8503312;27;20139;-95
2023/10/07 07:05:26;;;;;;;7.05;2.92;;;;;;;;;;8518613;27;20095;-96
2023/10/07 07:09:50;;;;;;;6.68;2.95;;;;;;;;;;8524597;27;20141;-96
2023/10/07 07:13:53;;;;;;;9.20;3.20;;;;;;;;;;8517699;27;20042;-95
2023/10/07 07:18:08;;;;;;;7.63;3.67;;;;;;;;;;8539284;27;20042;-94
2023/10/07 07:22:13;;;;;;;12.93;3.30;;;;;;;;;;8541046;27;20043;-96
2023/10/07 07:26:18;;;;;;;7.15;2.88;;;;;;;;;;8531930;27;20046;-96
2023/10/07 07:30:29;;;;;;;6.07;2.97;;;;;;;;;;8526905;27;20099;-95
2023/10/07 07:34:36;;;;;;;6.65;2.92;;;;;;;;;;8533218;27;20045;-94
2023/10/07 07:38:52;;;;;;;7.65;3.13;;;;;;;;;;8502575;27;20061;-95
2023/10/07 07:42:59;;;;;;;6.40;2.60;;;;;;;;;;8518192;27;20043;-95
2023/10/07 07:47:04;;;;;;;6.10;2.63;;;;;;;;;;8532097;27;20050;-93
2023/10/07 07:51:16;;;;;;;6.68;3.03;;;;;;;;;;8530823;27;20050;-95
2023/10/07 07:55:19;;;;;;;5.65;2.90;;;;;;;;;;8532146;27;20050;-94
2023/10/07 07:59:22;;;;;;;9.13;3.13;;;;;;;;;;8503815;27;20050;-95
2023/10/07 08:03:25;;;;;;;7.22;2.80;;;;;;;;;;8511635;27;20068;-95
2023/10/07 08:07:51;;;;;;;7.15;2.95;;;;;;;;;;8538970;27;20047;-95
2023/10/07 08:11:54;;;;;;;5.53;2.53;;;;;;;;;;8519210;27;20137;-95
2023/10/07 08:16:05;;;;;;;7.05;2.63;;;;;;;;;;8536196;27;20642;-94
2023/10/07 08:20:10;;;;;;;6.15;2.65;;;;;;;;;;8510722;27;20043;-94
2023/10/07 08:24:15;;;;;;;18.67;8.32;;;;;;;;;;8522579;27;20046;-95
2023/10/07 08:28:23;;;;;;;99.88;31.10;;;;;;;;;;8536298;27;20500;-95
2023/10/07 08:32:35;;;;;;;53.10;31.95;;;;;;;;;;8522413;27;20057;-95
2023/10/07 08:36:47;;;;;;;6.78;2.92;;;;;;;;;;8518087;27;20050;-95
2023/10/07 08:41:08;;;;;;;6.10;3.22;;;;;;;;;;8537407;27;20070;-95
2023/10/07 08:45:16;;;;;;;9.20;4.05;;;;;;;;;;8523722;27;20043;-94
2023/10/07 08:49:25;;;;;;;12.43;5.75;;;;;;;;;;8523838;27;20051;-95
2023/10/07 08:53:29;;;;;;;10.80;5.95;;;;;;;;;;8516992;27;20455;-94
2023/10/07 08:57:34;;;;;;;11.85;4.20;;;;;;;;;;8524983;27;20034;-94
2023/10/07 09:01:37;;;;;;;10.20;5.25;;;;;;;;;;8497371;27;20107;-95
2023/10/07 09:05:43;;;;;;;28.20;14.32;;;;;;;;;;8521326;27;20076;-95
2023/10/07 09:10:29;;;;;;;20.83;10.10;;;;;;;;;;8517631;27;20129;-96
2023/10/07 09:14:52;;;;;;;9.83;5.07;;;;;;;;;;8530100;27;20512;-95
2023/10/07 09:18:59;;;;;;;5.43;3.20;;;;;;;;;;8534963;27;20093;-94
2023/10/07 09:23:15;;;;;;;25.75;13.10;;;;;;;;;;8517108;27;20129;-94
2023/10/07 09:27:36;;;;;;;42.35;20.33;;;;;;;;;;8500363;27;20528;-94
2023/10/07 09:36:33;;;;;;;7.95;3.70;;;;;;;;;;8524669;27;20497;-94
2023/10/07 09:41:23;;;;;;;11.85;8.30;;;;;;;;;;8513640;27;20054;-95
2023/10/07 09:45:40;;;;;;;10.07;3.72;;;;;;;;;;8522416;27;20034;-94
2023/10/07 09:50:09;;;;;;;10.50;3.20;;;;;;;;;;8516181;27;20059;-94
2023/10/07 09:54:36;;;;;;;7.00;3.90;;;;;;;;;;8523128;27;20046;-95
2023/10/07 09:59:14;;;;;;;6.80;3.53;;;;;;;;;;8533818;27;20070;-95
2023/10/07 10:04:06;;;;;;;8.02;4.43;;;;;;;;;;8499335;27;20133;-96
2023/10/07 10:08:59;;;;;;;6.10;3.10;;;;;;;;;;8504839;27;20107;-95
2023/10/07 10:13:28;;;;;;;7.53;3.20;;;;;;;;;;8540755;27;20046;-95
2023/10/07 10:17:39;;;;;;;8.27;3.30;;;;;;;;;;8521342;27;20398;-94
2023/10/07 10:22:13;;;;;;;13.02;2.88;;;;;;;;;;8516028;27;20039;-93
2023/10/07 10:26:27;;;;;;;12.07;6.90;;;;;;;;;;8508831;27;20044;-94
2023/10/07 10:30:31;;;;;;;8.43;4.15;;;;;;;;;;8522438;27;20092;-94
2023/10/07 10:34:42;;;;;;;9.82;5.93;;;;;;;;;;8521712;27;20035;-94
2023/10/07 10:38:46;;;;;;;14.43;8.57;;;;;;;;;;8530560;27;20046;-94
2023/10/07 10:42:52;;;;;;;8.35;4.40;;;;;;;;;;8525957;27;20095;-94
2023/10/07 10:47:21;;;;;;;9.88;4.95;;;;;;;;;;8538693;27;20063;-94
2023/10/07 10:51:33;;;;;;;8.75;3.72;;;;;;;;;;8500050;27;20129;-94
2023/10/07 10:55:39;;;;;;;5.28;2.60;;;;;;;;;;8533584;27;20155;-95
2023/10/07 10:59:53;;;;;;;6.68;2.67;;;;;;;;;;8529718;27;20046;-95
2023/10/07 11:04:01;;;;;;;13.38;4.60;;;;;;;;;;8535603;27;20043;-96
2023/10/07 11:08:29;;;;;;;6.50;2.90;;;;;;;;;;8521733;27;20037;-94
2023/10/07 11:13:15;;;;;;;8.00;2.72;;;;;;;;;;8523720;27;20137;-96
2023/10/07 11:17:28;;;;;;;;;;;;;;;;;;8543496;27;20500;-93
2023/10/07 11:21:31;;;;;;;6.38;2.65;;;;;;;;;;8527803;27;19919;-96
2023/10/07 11:25:35;;;;;;;7.28;2.55;;;;;;;;;;8512695;27;20042;-95
2023/10/07 11:29:40;;;;;;;6.32;2.92;;;;;;;;;;8539395;27;20176;-95
2023/10/07 11:34:04;;;;;;;5.93;2.55;;;;;;;;;;8529107;27;20045;-95
2023/10/07 11:38:12;;;;;;;8.63;2.80;;;;;;;;;;8543070;27;20043;-96
2023/10/07 11:42:18;;;;;;;8.15;3.13;;;;;;;;;;8519231;27;20055;-95
2023/10/07 11:50:47;;;;;;;9.90;3.53;;;;;;;;;;8512583;27;20047;-96
2023/10/07 11:54:51;;;;;;;10.13;4.50;;;;;;;;;;8537741;27;20134;-95
2023/10/07 11:58:56;;;;;;;7.22;3.00;;;;;;;;;;8539569;27;20039;-95
2023/10/07 12:03:06;;;;;;;5.03;2.67;;;;;;;;;;8513277;27;20047;-96
2023/10/07 12:07:14;;;;;;;6.78;2.85;;;;;;;;;;8517803;27;20057;-94
2023/10/07 12:11:19;;;;;;;7.00;2.38;;;;;;;;;;8539047;27;20083;-96
2023/10/07 12:15:25;;;;;;;5.18;2.70;;;;;;;;;;8509066;27;20051;-96
2023/10/07 12:19:36;;;;;;;5.78;3.28;;;;;;;;;;8558812;27;20484;-95
2023/10/07 12:23:46;;;;;;;12.45;3.05;;;;;;;;;;8510763;27;20059;-96
2023/10/07 12:28:06;;;;;;;6.82;2.90;;;;;;;;;;8500270;27;20133;-96
2023/10/07 12:32:15;;;;;;;7.60;3.22;;;;;;;;;;8529081;27;20058;-95
2023/10/07 12:36:38;;;;;;;7.40;3.40;;;;;;;;;;8525104;27;20049;-95
2023/10/07 12:40:48;;;;;;;7.25;2.88;;;;;;;;;;8536839;27;20151;-96
2023/10/07 12:44:54;;;;;;;7.20;2.80;;;;;;;;;;8540166;27;20134;-95
2023/10/07 12:48:57;;;;;;;8.82;2.80;;;;;;;;;;8537285;27;20059;-96
2023/10/07 12:53:13;;;;;;;7.03;3.42;;;;;;;;;;8559635;27;20102;-95
2023/10/07 12:57:28;;;;;;;9.82;3.25;;;;;;;;;;8505481;28;20070;-96
2023/10/07 13:01:36;;;;;;;12.30;6.88;;;;;;;;;;8504535;28;20088;-96
2023/10/07 13:05:45;;;;;;;15.32;7.03;;;;;;;;;;8423869;22;20061;-95
2023/10/07 13:09:51;;;;;;;6.93;3.20;;;;;;;;;;8341789;28;20057;-95
2023/10/07 13:14:14;;;;;;;12.90;5.65;;;;;;;;;;8351473;28;20057;-93
2023/10/07 13:23:05;;;;;;;14.45;6.68;;;;;;;;;;8330960;28;19921;-95
2023/10/07 13:31:52;;;;;;;8.55;3.35;;;;;;;;;;8359164;28;20104;-96
2023/10/07 13:35:56;;;;;;;15.95;5.63;;;;;;;;;;8351771;28;20554;-94
2023/10/07 13:39:59;;;;;;;9.98;4.43;;;;;;;;;;8325450;28;20385;-94
2023/10/07 13:44:09;;;;;;;6.28;3.47;;;;;;;;;;8329394;28;20100;-93
2023/10/07 13:48:22;;;;;;;15.48;7.60;;;;;;;;;;8324630;28;20041;-94
2023/10/07 13:52:29;;;;;;;7.57;3.42;;;;;;;;;;8337665;28;20045;-94
2023/10/07 13:56:45;;;;;;;13.10;8.27;;;;;;;;;;8325349;28;20050;-94
2023/10/07 14:00:51;;;;;;;12.77;6.60;;;;;;;;;;8324440;28;20094;-94
2023/10/07 14:04:57;;;;;;;7.93;4.80;;;;;;;;;;8333637;28;20061;-93
2023/10/07 14:09:01;;;;;;;12.48;6.28;;;;;;;;;;8335986;28;20129;-94
2023/10/07 14:13:11;;;;;;;12.00;6.18;;;;;;;;;;8325769;28;20049;-91
2023/10/07 14:17:14;;;;;;;9.73;3.78;;;;;;;;;;8331345;28;20050;-92
2023/10/07 14:21:25;;;;;;;11.60;6.07;;;;;;;;;;8335003;28;20048;-94
2023/10/07 14:25:30;;;;;;;16.13;9.15;;;;;;;;;;8335868;28;20554;-93
2023/10/07 14:29:35;;;;;;;10.07;5.07;;;;;;;;;;8330722;28;20140;-94
2023/10/07 14:33:38;;;;;;;13.10;8.23;;;;;;;;;;8327294;28;20053;-93
2023/10/07 14:37:46;;;;;;;9.27;6.60;;;;;;;;;;8338944;28;20107;-93
2023/10/07 14:41:53;;;;;;;10.95;6.32;;;;;;;;;;8322277;28;20141;-93
2023/10/07 14:45:57;;;;;;;11.23;8.10;;;;;;;;;;8334124;28;20560;-93
2023/10/07 14:50:00;;;;;;;10.93;6.70;;;;;;;;;;8338868;28;20055;-93
2023/10/07 14:54:06;;;;;;;12.52;6.90;;;;;;;;;;8340389;28;20049;-94
2023/10/07 14:58:12;;;;;;;11.80;4.63;;;;;;;;;;8339691;28;20084;-94
2023/10/07 15:06:33;;;;;;;8.60;5.53;;;;;;;;;;8326421;28;20057;-94
2023/10/07 15:10:45;;;;;;;12.40;5.53;;;;;;;;;;8337072;28;20045;-94
2023/10/07 15:15:01;;;;;;;9.07;5.05;;;;;;;;;;8337481;28;20132;-92
2023/10/07 15:19:05;;;;;;;9.77;5.82;;;;;;;;;;8338030;28;20049;-95
2023/10/07 15:23:10;;;;;;;9.48;5.80;;;;;;;;;;8337004;28;20100;-96
2023/10/07 15:27:16;;;;;;;9.48;5.43;;;;;;;;;;8336395;28;20045;-96
2023/10/07 15:31:24;;;;;;;9.13;5.45;;;;;;;;;;8331344;28;20053;-94
2023/10/07 15:35:27;;;;;;;11.15;5.00;;;;;;;;;;8326830;28;20600;-91
2023/10/07 15:39:30;;;;;;;7.65;4.68;;;;;;;;;;8308720;28;20446;-93
2023/10/07 15:43:35;;;;;;;9.57;5.22;;;;;;;;;;8329318;28;20049;-93
2023/10/07 15:47:39;;;;;;;9.55;6.15;;;;;;;;;;8322645;28;20041;-95
2023/10/07 15:51:44;;;;;;;13.52;5.93;;;;;;;;;;8334186;28;20508;-90
2023/10/07 15:55:47;;;;;;;18.65;6.78;;;;;;;;;;8322517;28;20069;-94
2023/10/07 15:59:52;;;;;;;13.95;9.18;;;;;;;;;;8333660;28;20459;-95
2023/10/07 16:03:56;;;;;;;12.75;7.53;;;;;;;;;;8321057;28;20057;-94
2023/10/07 16:07:59;;;;;;;13.57;7.60;;;;;;;;;;8336009;28;20065;-93
2023/10/07 16:12:03;;;;;;;19.83;11.45;;;;;;;;;;8323869;28;20428;-94
2023/10/07 16:16:14;;;;;;;19.08;9.32;;;;;;;;;;8331875;28;20045;-92
2023/10/07 16:20:18;;;;;;;15.70;8.75;;;;;;;;;;8320513;28;20164;-91
2023/10/07 16:24:22;;;;;;;24.17;15.50;;;;;;;;;;8330810;28;20074;-91
2023/10/07 16:28:25;;;;;;;13.35;6.43;;;;;;;;;;8331869;28;20054;-92
2023/10/07 16:32:31;;;;;;;10.82;5.78;;;;;;;;;;8320171;28;20060;-94
2023/10/07 16:36:34;;;;;;;11.38;5.55;;;;;;;;;;8321257;28;20049;-90
2023/10/07 16:40:40;;;;;;;7.00;4.15;;;;;;;;;;8334949;28;20095;-95
2023/10/07 16:44:44;;;;;;;7.30;4.93;;;;;;;;;;8322767;28;20046;-95
2023/10/07 16:49:12;;;;;;;9.60;5.90;;;;;;;;;;8320311;28;20073;-93
2023/10/07 16:53:16;;;;;;;5.85;3.75;;;;;;;;;;8333729;28;20046;-94
2023/10/07 16:57:23;;;;;;;8.88;4.80;;;;;;;;;;8331765;28;20041;-95
2023/10/07 17:01:29;;;;;;;8.57;5.25;;;;;;;;;;8321233;28;20052;-93
2023/10/07 17:05:35;;;;;;;8.15;4.35;;;;;;;;;;8321619;28;20073;-95
2023/10/07 17:09:38;;;;;;;7.80;5.20;;;;;;;;;;8309755;28;20119;-93
2023/10/07 17:13:42;;;;;;;17.02;11.10;;;;;;;;;;8319319;28;20076;-93
2023/10/07 17:17:46;;;;;;;9.18;4.47;;;;;;;;;;8328756;28;20048;-93
2023/10/07 17:26:11;;;;;;;8.87;4.83;;;;;;;;;;8328646;28;20504;-92
2023/10/07 17:30:15;;;;;;;7.55;4.72;;;;;;;;;;8328812;28;20065;-96
2023/10/07 17:34:19;;;;;;;10.52;4.40;;;;;;;;;;8319343;28;20049;-90
2023/10/07 17:38:26;;;;;;;6.72;4.03;;;;;;;;;;8321982;28;20129;-92
2023/10/07 17:42:33;;;;;;;9.38;6.25;;;;;;;;;;8327384;28;20065;-90
2023/10/07 17:46:39;;;;;;;7.25;4.40;;;;;;;;;;8332630;28;20045;-94
2023/10/07 17:50:43;;;;;;;6.95;4.65;;;;;;;;;;8326579;28;20045;-89
2023/10/07 17:54:48;;;;;;;8.82;5.10;;;;;;;;;;8328800;28;20049;-92
2023/10/07 17:58:52;;;;;;;5.75;2.70;;;;;;;;;;8339579;28;20382;-91
2023/10/07 18:02:57;;;;;;;4.10;2.97;;;;;;;;;;8310401;28;20121;-95
2023/10/07 18:06:59;;;;;;;4.95;1.77;;;;;;;;;;8318484;28;20073;-93
2023/10/07 18:11:05;;;;;;;2.60;1.35;;;;;;;;;;8323988;28;20124;-88
2023/10/07 18:15:09;;;;;;;5.80;1.60;;;;;;;;;;8316045;28;20456;-89
2023/10/07 18:19:16;;;;;;;3.90;1.63;;;;;;;;;;8327151;28;20572;-89
2023/10/07 18:23:19;;;;;;;3.50;1.77;;;;;;;;;;8333844;28;20041;-93
2023/10/07 18:27:26;;;;;;;4.30;2.20;;;;;;;;;;8335415;28;20041;-93
2023/10/07 18:31:31;;;;;;;6.82;3.13;;;;;;;;;;8321662;28;20052;-89
2023/10/07 18:35:36;;;;;;;3.90;2.53;;;;;;;;;;8334378;28;20045;-89
2023/10/07 18:39:40;;;;;;;9.82;2.70;;;;;;;;;;8330895;28;20485;-91
2023/10/07 18:43:45;;;;;;;3.30;1.70;;;;;;;;;;8321447;28;20050;-90
2023/10/07 18:47:50;;;;;;;4.03;1.67;;;;;;;;;;8327314;28;20457;-92
2023/10/07 18:51:54;;;;;;;6.35;2.25;;;;;;;;;;8333550;28;20045;-91
2023/10/07 18:55:58;;;;;;;8.02;2.58;;;;;;;;;;8321652;28;20099;-91
2023/10/07 19:00:04;;;;;;;5.85;1.92;;;;;;;;;;8334504;28;20044;-86
2023/10/07 19:04:07;;;;;;;3.65;1.40;;;;;;;;;;8333985;28;20117;-86
2023/10/07 19:08:12;;;;;;;4.90;1.80;;;;;;;;;;8328863;28;20401;-86
2023/10/07 19:12:16;;;;;;;5.35;2.22;;;;;;;;;;8332950;28;20045;-92
2023/10/07 19:28:24;;;;;;;7.13;2.58;;;;;;;;;;8302761;27;2864337;-88
2023/10/07 19:32:29;;;;;;;6.05;2.13;;;;;;;;;;8389114;28;20048;-88
2023/10/07 19:36:34;;;;;;;7.53;2.28;;;;;;;;;;8389445;28;20135;-88
2023/10/07 19:40:38;;;;;;;9.15;2.50;;;;;;;;;;8390157;28;20041;-90
2023/10/07 19:44:46;;;;;;;6.85;2.13;;;;;;;;;;8385751;28;20037;-89
2023/10/07 19:48:50;;;;;;;7.47;2.50;;;;;;;;;;8380188;28;20041;-87
2023/10/07 19:52:54;;;;;;;6.10;2.35;;;;;;;;;;8387588;28;20097;-92
2023/10/07 19:56:58;;;;;;;6.28;2.05;;;;;;;;;;8383770;28;20044;-91
2023/10/07 20:01:06;;;;;;;5.32;2.53;;;;;;;;;;8380763;28;20076;-92
2023/10/07 20:05:10;;;;;;;11.52;3.53;;;;;;;;;;8384456;28;20049;-90
2023/10/07 20:09:18;;;;;;;8.73;2.60;;;;;;;;;;8379728;28;20056;-91
2023/10/07 20:13:21;;;;;;;8.27;3.13;;;;;;;;;;8369880;28;20067;-88
2023/10/07 20:17:26;;;;;;;6.43;2.92;;;;;;;;;;8356566;28;20045;-86
2023/10/07 20:21:29;;;;;;;6.10;2.35;;;;;;;;;;8356814;28;20051;-90
2023/10/07 20:25:32;;;;;;;8.30;2.80;;;;;;;;;;8382086;28;20130;-87
2023/10/07 20:29:35;;;;;;;6.18;2.35;;;;;;;;;;8334644;28;20045;-87
2023/10/07 20:33:40;;;;;;;7.18;2.60;;;;;;;;;;8350219;28;20053;-89
2023/10/07 20:37:43;;;;;;;8.68;3.15;;;;;;;;;;8356738;28;20179;-88
2023/10/07 20:41:46;;;;;;;7.68;3.10;;;;;;;;;;8333902;28;20090;-89
2023/10/07 20:46:07;;;;;;;10.35;2.90;;;;;;;;;;8343500;28;20072;-88
2023/10/07 20:50:12;;;;;;;10.15;2.83;;;;;;;;;;8366452;28;20041;-90
2023/10/07 20:54:15;;;;;;;9.13;3.28;;;;;;;;;;8341043;28;20132;-87
2023/10/07 20:58:18;;;;;;;7.57;2.97;;;;;;;;;;8333524;28;20659;-87
2023/10/07 21:02:21;;;;;;;13.10;4.07;;;;;;;;;;8360808;28;20492;-90
2023/10/07 21:06:25;;;;;;;11.27;4.00;;;;;;;;;;8353730;28;20055;-87
2023/10/07 21:10:29;;;;;;;10.13;3.55;;;;;;;;;;8343584;28;20049;-89
2023/10/07 21:14:32;;;;;;;6.28;2.00;;;;;;;;;;8332960;28;20045;-87
2023/10/07 21:18:35;;;;;;;5.68;2.00;;;;;;;;;;8346213;28;20391;-88
2023/10/07 21:22:39;;;;;;;8.60;2.97;;;;;;;;;;8332678;28;20052;-88
2023/10/07 21:26:42;;;;;;;6.85;2.40;;;;;;;;;;8332223;28;20198;-90
2023/10/07 21:30:47;;;;;;;6.35;2.35;;;;;;;;;;8332215;28;20111;-89
2023/10/07 21:34:50;;;;;;;8.95;2.65;;;;;;;;;;8336576;28;20045;-89
2023/10/07 21:38:54;;;;;;;7.72;2.60;;;;;;;;;;8349397;28;20063;-89
2023/10/07 21:42:57;;;;;;;8.90;2.60;;;;;;;;;;8351881;28;20108;-92
2023/10/07 21:47:00;;;;;;;9.27;2.65;;;;;;;;;;8332100;28;20045;-88
2023/10/07 21:51:07;;;;;;;5.18;2.08;;;;;;;;;;8331947;28;20041;-89
2023/10/07 21:55:12;;;;;;;12.30;2.92;;;;;;;;;;8351121;28;20579;-88
2023/10/07 21:59:19;;;;;;;4.97;2.50;;;;;;;;;;8339321;28;20056;-90
2023/10/07 22:03:22;;;;;;;5.38;2.15;;;;;;;;;;8351877;28;20052;-89
2023/10/07 22:07:24;;;;;;;5.95;2.40;;;;;;;;;;8364130;28;20045;-88
2023/10/07 22:11:29;;;;;;;5.57;2.28;;;;;;;;;;8345078;28;20488;-90
2023/10/07 22:15:32;;;;;;;8.35;2.55;;;;;;;;;;8344923;28;20051;-88
2023/10/07 22:19:35;;;;;;;8.65;2.85;;;;;;;;;;8357033;28;20132;-90
2023/10/07 22:23:38;;;;;;;7.95;2.45;;;;;;;;;;8357189;28;20049;-88
2023/10/07 22:27:44;;;;;;;7.50;2.35;;;;;;;;;;8330753;28;20417;-88
2023/10/07 22:31:54;;;;;;;9.70;3.20;;;;;;;;;;8331802;28;20390;-88
2023/10/07 22:35:59;;;;;;;5.85;2.33;;;;;;;;;;8341542;28;20041;-87
2023/10/07 22:40:21;;;;;;;9.88;2.60;;;;;;;;;;8332774;28;20485;-88
2023/10/07 22:44:26;;;;;;;5.15;2.20;;;;;;;;;;8349764;28;20572;-88
2023/10/07 22:48:29;;;;;;;3.65;2.13;;;;;;;;;;8348986;28;20037;-90
2023/10/07 22:52:32;;;;;;;6.43;2.58;;;;;;;;;;8345015;28;20044;-87
2023/10/07 22:56:38;;;;;;;10.10;2.40;;;;;;;;;;8335077;28;20041;-90
2023/10/07 23:00:44;;;;;;;6.13;2.30;;;;;;;;;;8336263;28;20047;-86
2023/10/07 23:04:47;;;;;;;4.18;2.00;;;;;;;;;;8344819;28;20068;-87
2023/10/07 23:08:58;;;;;;;6.25;2.58;;;;;;;;;;8344007;28;20049;-86
2023/10/07 23:13:09;;;;;;;6.28;2.75;;;;;;;;;;8349363;28;20091;-87
2023/10/07 23:17:22;;;;;;;6.53;2.67;;;;;;;;;;8347381;28;20136;-86
2023/10/07 23:25:48;;;;;;;10.23;3.00;;;;;;;;;;8336771;28;20130;-86
2023/10/07 23:29:54;;;;;;;6.43;2.72;;;;;;;;;;8355467;28;20045;-86
2023/10/07 23:34:10;;;;;;;8.35;3.65;;;;;;;;;;8328926;28;20045;-87
2023/10/07 23:38:17;;;;;;;14.02;6.50;;;;;;;;;;8340534;28;20041;-86
2023/10/07 23:42:25;;;;;;;8.82;4.15;;;;;;;;;;8328717;28;20045;-87
2023/10/07 23:46:31;;;;;;;5.72;3.10;;;;;;;;;;8333295;28;20157;-88
2023/10/07 23:50:39;;;;;;;6.80;3.42;;;;;;;;;;8335352;28;20041;-88
2023/10/07 23:54:43;;;;;;;12.63;6.38;;;;;;;;;;8328680;28;20045;-88
2023/10/07 23:58:49;;;;;;;9.90;3.42;;;;;;;;;;8330840;28;20037;-89
